createdAt,value
2023-04-26T00:00:55.435Z,99.90
2023-04-26T00:03:27.600Z,99.90
2023-04-26T00:06:05.724Z,99.90
2023-04-26T00:08:37.458Z,99.90
2023-04-26T00:11:09.231Z,99.90
2023-04-26T00:13:41.021Z,99.90
2023-04-26T00:16:14.120Z,99.90
2023-04-26T00:18:46.342Z,99.90
2023-04-26T00:21:18.002Z,99.90
2023-04-26T00:23:49.738Z,99.90
2023-04-26T00:26:21.588Z,99.90
2023-04-26T00:28:53.661Z,99.90
2023-04-26T00:31:25.884Z,99.90
2023-04-26T00:33:57.693Z,99.90
2023-04-26T00:36:29.401Z,99.90
2023-04-26T00:39:01.093Z,99.90
2023-04-26T00:41:33.365Z,99.90
2023-04-26T00:44:05.138Z,99.90
2023-04-26T00:46:36.870Z,99.90
2023-04-26T00:49:08.936Z,99.90
2023-04-26T00:51:40.720Z,99.90
2023-04-26T00:54:13.487Z,99.90
2023-04-26T00:56:45.935Z,99.90
2023-04-26T00:59:18.028Z,99.90
2023-04-26T01:01:49.755Z,99.90
2023-04-26T01:04:21.675Z,99.90
2023-04-26T01:06:56.008Z,99.90
2023-04-26T01:09:31.643Z,99.90
2023-04-26T01:12:06.627Z,99.90
2023-04-26T01:14:40.058Z,99.90
2023-04-26T01:17:11.774Z,99.90
2023-04-26T01:19:52.018Z,99.90
2023-04-26T01:22:23.783Z,99.90
2023-04-26T01:24:56.461Z,99.90
2023-04-26T01:27:28.266Z,99.90
2023-04-26T01:29:59.974Z,99.90
2023-04-26T01:32:31.893Z,99.90
2023-04-26T01:35:03.999Z,99.90
2023-04-26T01:37:35.890Z,99.90
2023-04-26T01:40:08.302Z,99.90
2023-04-26T01:42:42.073Z,99.90
2023-04-26T01:45:13.810Z,99.90
2023-04-26T01:48:04.219Z,99.90
2023-04-26T01:50:37.261Z,99.90
2023-04-26T01:53:09.018Z,99.90
2023-04-26T01:55:40.826Z,99.90
2023-04-26T01:58:14.521Z,99.90
2023-04-26T02:00:46.340Z,99.90
2023-04-26T02:03:18.241Z,99.90
2023-04-26T02:05:49.999Z,99.90
2023-04-26T02:08:21.707Z,99.90
2023-04-26T02:10:53.448Z,99.90
2023-04-26T02:13:25.680Z,99.90
2023-04-26T02:15:57.864Z,99.90
2023-04-26T02:18:29.963Z,99.90
2023-04-26T02:21:01.837Z,99.90
2023-04-26T02:23:34.425Z,99.90
2023-04-26T02:26:06.369Z,99.90
2023-04-26T02:28:38.371Z,99.90
2023-04-26T02:31:10.135Z,99.90
2023-04-26T02:33:41.993Z,99.90
2023-04-26T02:36:14.490Z,99.90
2023-04-26T02:38:46.402Z,99.90
2023-04-26T02:41:18.135Z,99.90
2023-04-26T02:43:49.828Z,99.90
2023-04-26T02:46:21.565Z,99.90
2023-04-26T02:48:53.549Z,99.90
2023-04-26T02:51:27.021Z,99.90
2023-04-26T02:53:59.057Z,99.90
2023-04-26T02:56:31.372Z,99.90
2023-04-26T02:59:03.097Z,99.90
2023-04-26T03:01:35.025Z,99.90
2023-04-26T03:04:07.468Z,99.90
2023-04-26T03:06:40.909Z,99.90
2023-04-26T03:09:12.707Z,99.90
2023-04-26T03:11:44.877Z,99.90
2023-04-26T03:14:18.029Z,99.90
2023-04-26T03:16:49.989Z,99.90
2023-04-26T03:19:21.754Z,99.90
2023-04-26T03:21:54.167Z,99.90
2023-04-26T03:24:26.011Z,99.90
2023-04-26T03:26:57.934Z,99.90
2023-04-26T03:29:29.821Z,99.90
2023-04-26T03:32:01.876Z,99.90
2023-04-26T03:34:33.902Z,99.90
2023-04-26T03:37:06.572Z,99.90
2023-04-26T03:39:38.480Z,99.90
2023-04-26T03:42:10.341Z,99.90
2023-04-26T03:44:43.645Z,99.90
2023-04-26T03:47:15.838Z,99.90
2023-04-26T03:49:47.556Z,99.90
2023-04-26T03:52:19.913Z,99.90
2023-04-26T03:54:52.111Z,99.90
2023-04-26T03:57:23.824Z,99.90
2023-04-26T03:59:56.225Z,99.90
2023-04-26T04:02:28.080Z,99.90
2023-04-26T04:05:00.844Z,99.90
2023-04-26T04:07:35.430Z,99.90
2023-04-26T04:10:07.589Z,99.90
2023-04-26T04:12:40.452Z,99.90
2023-04-26T04:15:12.279Z,99.90
2023-04-26T04:17:49.023Z,99.90
2023-04-26T04:20:21.761Z,99.90
2023-04-26T04:22:53.681Z,99.90
2023-04-26T04:25:25.522Z,99.90
2023-04-26T04:27:58.322Z,99.90
2023-04-26T04:30:30.825Z,99.90
2023-04-26T04:33:03.720Z,99.90
2023-04-26T04:35:36.027Z,99.90
2023-04-26T04:38:10.031Z,99.90
2023-04-26T04:40:42.293Z,99.90
2023-04-26T04:43:15.521Z,99.90
2023-04-26T04:45:49.381Z,99.90
2023-04-26T04:48:21.835Z,99.90
2023-04-26T04:50:54.833Z,99.90
2023-04-26T04:53:27.028Z,99.90
2023-04-26T04:55:58.871Z,99.90
2023-04-26T04:58:30.875Z,99.90
2023-04-26T05:01:02.936Z,99.90
2023-04-26T05:03:41.964Z,99.90
2023-04-26T05:06:14.128Z,99.90
2023-04-26T05:08:45.828Z,99.90
2023-04-26T05:11:17.593Z,99.90
2023-04-26T05:13:52.270Z,99.90
2023-04-26T05:16:24.788Z,99.90
2023-04-26T05:18:56.785Z,99.90
2023-04-26T05:21:28.613Z,99.90
2023-04-26T05:24:00.478Z,99.90
2023-04-26T05:26:32.461Z,99.90
2023-04-26T05:29:21.152Z,99.90
2023-04-26T05:32:05.154Z,99.90
2023-04-26T05:35:03.347Z,99.90
2023-04-26T05:37:36.195Z,99.90
2023-04-26T05:40:09.094Z,99.90
2023-04-26T05:42:41.007Z,99.90
2023-04-26T05:45:13.953Z,99.90
2023-04-26T05:47:47.622Z,99.90
2023-04-26T05:50:19.385Z,99.90
2023-04-26T05:52:51.142Z,99.90
2023-04-26T05:55:23.620Z,99.90
2023-04-26T05:57:55.476Z,99.90
2023-04-26T06:00:27.491Z,99.90
2023-04-26T06:02:59.417Z,99.90
2023-04-26T06:05:32.278Z,99.90
2023-04-26T06:08:04.234Z,99.90
2023-04-26T06:10:37.538Z,99.90
2023-04-26T06:13:09.286Z,99.90
2023-04-26T06:15:42.301Z,99.90
2023-04-26T06:18:14.131Z,99.90
2023-04-26T06:20:46.971Z,99.90
2023-04-26T06:23:20.256Z,99.90
2023-04-26T06:25:52.193Z,99.90
2023-04-26T06:28:24.670Z,99.90
2023-04-26T06:30:56.500Z,99.90
2023-04-26T06:33:29.201Z,99.90
2023-04-26T06:36:00.959Z,99.80
2023-04-26T06:38:33.390Z,98.90
2023-04-26T06:41:05.402Z,96.80
2023-04-26T06:43:37.746Z,97.00
2023-04-26T06:46:23.494Z,97.60
2023-04-26T06:48:58.850Z,99.50
2023-04-26T06:51:31.401Z,99.70
2023-04-26T06:54:03.088Z,99.90
2023-04-26T06:56:34.957Z,98.30
2023-04-26T06:59:07.656Z,98.20
2023-04-26T07:01:39.404Z,98.00
2023-04-26T07:04:11.768Z,98.60
2023-04-26T07:06:43.641Z,98.90
2023-04-26T07:09:15.411Z,99.30
2023-04-26T07:11:47.542Z,98.40
2023-04-26T07:14:19.308Z,98.60
2023-04-26T07:16:51.264Z,99.10
2023-04-26T07:19:23.394Z,99.00
2023-04-26T07:21:55.203Z,99.80
2023-04-26T07:24:27.133Z,99.40
2023-04-26T07:26:59.186Z,98.30
2023-04-26T07:29:30.899Z,97.80
2023-04-26T07:32:02.665Z,97.10
2023-04-26T07:34:34.431Z,97.30
2023-04-26T07:37:07.094Z,97.20
2023-04-26T07:39:38.836Z,97.00
2023-04-26T07:42:10.694Z,96.00
2023-04-26T07:44:42.395Z,95.80
2023-04-26T07:47:14.589Z,96.70
2023-04-26T07:49:47.755Z,96.10
2023-04-26T07:52:19.672Z,95.90
2023-04-26T07:54:51.688Z,96.10
2023-04-26T07:57:24.448Z,95.80
2023-04-26T07:59:56.639Z,95.50
2023-04-26T08:02:43.514Z,96.40
2023-04-26T08:05:17.039Z,95.90
2023-04-26T08:07:48.911Z,94.70
2023-04-26T08:10:20.749Z,95.20
2023-04-26T08:12:53.323Z,94.60
2023-04-26T08:15:25.165Z,95.60
2023-04-26T08:17:57.192Z,93.50
2023-04-26T08:20:29.006Z,93.00
2023-04-26T08:23:00.753Z,93.40
2023-04-26T08:25:34.731Z,93.60
2023-04-26T08:28:08.572Z,92.80
2023-04-26T08:30:40.844Z,93.50
2023-04-26T08:33:12.591Z,91.20
2023-04-26T08:35:44.324Z,91.80
2023-04-26T08:38:16.141Z,92.00
2023-04-26T08:40:47.873Z,91.20
2023-04-26T08:43:19.572Z,90.10
2023-04-26T08:45:52.204Z,90.50
2023-04-26T08:48:24.105Z,90.30
2023-04-26T08:50:56.464Z,89.00
2023-04-26T08:53:29.455Z,88.30
2023-04-26T08:56:02.233Z,89.70
2023-04-26T08:58:34.164Z,87.30
2023-04-26T09:01:06.644Z,88.80
2023-04-26T09:03:38.492Z,85.20
2023-04-26T09:06:11.194Z,86.40
2023-04-26T09:08:44.004Z,87.00
2023-04-26T09:11:15.784Z,87.20
2023-04-26T09:13:47.759Z,86.70
2023-04-26T09:16:19.883Z,84.40
2023-04-26T09:18:52.594Z,84.50
2023-04-26T09:21:25.025Z,87.30
2023-04-26T09:24:04.280Z,89.50
2023-04-26T09:26:36.202Z,86.60
2023-04-26T09:29:13.144Z,84.60
2023-04-26T09:31:49.500Z,84.60
2023-04-26T09:34:21.868Z,85.80
2023-04-26T09:36:57.855Z,81.10
2023-04-26T09:39:38.118Z,83.30
2023-04-26T09:42:11.179Z,82.50
2023-04-26T09:44:42.891Z,79.50
2023-04-26T09:47:14.641Z,79.90
2023-04-26T09:49:51.552Z,77.00
2023-04-26T09:52:23.279Z,76.80
2023-04-26T09:54:55.716Z,77.50
2023-04-26T09:57:27.421Z,78.30
2023-04-26T10:00:00.860Z,78.20
2023-04-26T10:02:33.082Z,80.20
2023-04-26T10:05:07.153Z,76.90
2023-04-26T10:07:41.277Z,76.80
2023-04-26T10:10:13.231Z,77.20
2023-04-26T10:12:45.758Z,78.20
2023-04-26T10:15:19.221Z,80.00
2023-04-26T10:17:52.241Z,81.00
2023-04-26T10:20:28.358Z,79.30
2023-04-26T10:23:03.577Z,77.30
2023-04-26T10:25:40.750Z,75.40
2023-04-26T10:28:12.773Z,76.50
2023-04-26T10:30:58.369Z,76.80
2023-04-26T10:33:30.265Z,75.80
2023-04-26T10:36:11.089Z,75.60
2023-04-26T10:39:18.508Z,75.30
2023-04-26T10:41:50.230Z,74.70
2023-04-26T10:44:42.214Z,75.20
2023-04-26T10:47:26.838Z,76.10
2023-04-26T10:50:07.313Z,75.40
2023-04-26T10:53:03.512Z,74.90
2023-04-26T10:55:40.451Z,75.70
2023-04-26T10:58:30.401Z,75.80
2023-04-26T11:01:18.619Z,77.70
2023-04-26T11:03:56.791Z,76.40
2023-04-26T11:06:51.124Z,77.30
2023-04-26T11:09:39.712Z,73.80
2023-04-26T11:12:13.064Z,74.00
2023-04-26T11:14:48.510Z,75.20
2023-04-26T11:17:20.813Z,74.10
2023-04-26T11:19:52.693Z,77.00
2023-04-26T11:22:24.571Z,74.10
2023-04-26T11:24:56.306Z,72.30
2023-04-26T11:27:28.287Z,70.10
2023-04-26T11:30:04.915Z,70.80
2023-04-26T11:32:36.749Z,70.90
2023-04-26T11:35:09.289Z,70.50
2023-04-26T11:37:41.239Z,72.50
2023-04-26T11:40:15.745Z,72.50
2023-04-26T11:42:47.960Z,73.80
2023-04-26T11:45:19.740Z,69.10
2023-04-26T11:47:51.643Z,69.30
2023-04-26T11:50:26.744Z,72.00
2023-04-26T11:53:01.048Z,71.10
2023-04-26T11:55:34.832Z,71.90
2023-04-26T11:58:11.571Z,71.90
2023-04-26T12:01:05.318Z,73.90
2023-04-26T12:03:37.918Z,72.70
2023-04-26T12:06:09.935Z,72.40
2023-04-26T12:08:41.645Z,73.30
2023-04-26T12:11:16.766Z,73.00
2023-04-26T12:13:48.776Z,72.40
2023-04-26T12:16:26.688Z,71.40
2023-04-26T12:18:58.698Z,69.70
2023-04-26T12:21:31.124Z,70.30
2023-04-26T12:24:03.002Z,70.70
2023-04-26T12:26:45.040Z,70.60
2023-04-26T12:29:16.787Z,69.50
2023-04-26T12:31:48.924Z,71.00
2023-04-26T12:34:20.829Z,70.60
2023-04-26T12:36:52.806Z,71.70
2023-04-26T12:39:24.541Z,70.40
2023-04-26T12:41:56.488Z,71.70
2023-04-26T12:44:28.276Z,70.80
2023-04-26T12:46:59.997Z,70.80
2023-04-26T12:49:31.888Z,68.50
2023-04-26T12:52:03.582Z,67.80
2023-04-26T12:54:35.276Z,66.20
2023-04-26T12:57:07.091Z,67.90
2023-04-26T12:59:38.769Z,68.10
2023-04-26T13:02:10.551Z,69.20
2023-04-26T13:04:42.543Z,67.80
2023-04-26T13:07:14.505Z,68.70
2023-04-26T13:09:46.416Z,68.40
2023-04-26T13:12:18.184Z,69.40
2023-04-26T13:14:49.906Z,70.70
2023-04-26T13:17:23.241Z,71.90
2023-04-26T13:19:55.037Z,72.60
2023-04-26T13:22:26.978Z,71.60
2023-04-26T13:24:58.661Z,71.90
2023-04-26T13:27:31.732Z,71.80
2023-04-26T13:30:03.892Z,70.30
2023-04-26T13:32:36.007Z,70.20
2023-04-26T13:35:08.212Z,71.40
2023-04-26T13:37:39.927Z,70.90
2023-04-26T13:40:12.065Z,70.70
2023-04-26T13:42:43.782Z,69.80
2023-04-26T13:45:17.020Z,70.00
2023-04-26T13:47:49.947Z,71.30
2023-04-26T13:50:21.927Z,71.70
2023-04-26T13:52:53.972Z,70.80
2023-04-26T13:55:25.833Z,69.70
2023-04-26T13:57:57.746Z,70.60
2023-04-26T14:00:29.463Z,70.50
2023-04-26T14:03:01.290Z,72.10
2023-04-26T14:05:33.333Z,71.40
2023-04-26T14:08:05.945Z,70.90
2023-04-26T14:10:37.659Z,70.70
2023-04-26T14:13:09.396Z,70.10
2023-04-26T14:15:41.305Z,70.40
2023-04-26T14:18:13.140Z,67.80
2023-04-26T14:20:44.904Z,68.00
2023-04-26T14:23:16.873Z,68.60
2023-04-26T14:25:52.476Z,69.60
2023-04-26T14:28:24.219Z,69.60
2023-04-26T14:30:55.984Z,70.60
2023-04-26T14:33:27.943Z,68.60
2023-04-26T14:35:59.733Z,69.10
2023-04-26T14:38:31.678Z,69.10
2023-04-26T14:41:03.462Z,69.50
2023-04-26T14:43:35.163Z,67.50
2023-04-26T14:46:07.966Z,67.50
2023-04-26T14:48:40.002Z,68.40
2023-04-26T14:51:11.896Z,68.60
2023-04-26T14:53:43.574Z,68.00
2023-04-26T14:56:15.272Z,68.60
2023-04-26T14:58:46.955Z,68.60
2023-04-26T15:01:18.733Z,67.60
2023-04-26T15:03:50.654Z,68.30
2023-04-26T15:06:22.583Z,68.20
2023-04-26T15:08:54.373Z,67.50
2023-04-26T15:11:26.118Z,69.70
2023-04-26T15:13:57.890Z,66.90
2023-04-26T15:16:30.142Z,66.60
2023-04-26T15:19:01.908Z,66.80
2023-04-26T15:21:34.354Z,65.90
2023-04-26T15:24:07.692Z,65.40
2023-04-26T15:26:39.508Z,65.30
2023-04-26T15:29:11.462Z,66.10
2023-04-26T15:31:43.237Z,66.10
2023-04-26T15:34:16.063Z,66.30
2023-04-26T15:36:47.750Z,66.30
2023-04-26T15:39:20.011Z,66.40
2023-04-26T15:41:51.838Z,65.20
2023-04-26T15:44:23.614Z,66.20
2023-04-26T15:46:55.755Z,66.10
2023-04-26T15:49:27.509Z,65.40
2023-04-26T15:51:59.180Z,66.20
2023-04-26T15:54:30.994Z,64.50
2023-04-26T15:57:03.989Z,65.40
2023-04-26T15:59:35.927Z,67.00
2023-04-26T16:02:07.794Z,67.80
2023-04-26T16:04:39.753Z,68.20
2023-04-26T16:07:11.786Z,68.60
2023-04-26T16:09:44.764Z,69.00
2023-04-26T16:12:16.480Z,69.20
2023-04-26T16:14:48.955Z,70.20
2023-04-26T16:17:20.685Z,70.20
2023-04-26T16:19:52.367Z,69.00
2023-04-26T16:22:24.097Z,68.00
2023-04-26T16:24:55.966Z,67.50
2023-04-26T16:27:27.883Z,68.40
2023-04-26T16:29:59.671Z,68.80
2023-04-26T16:32:31.811Z,68.80
2023-04-26T16:35:03.993Z,69.10
2023-04-26T16:37:35.840Z,69.40
2023-04-26T16:40:09.643Z,69.20
2023-04-26T16:42:43.282Z,68.70
2023-04-26T16:45:16.473Z,69.30
2023-04-26T16:47:48.488Z,69.50
2023-04-26T16:50:20.348Z,69.20
2023-04-26T16:52:52.365Z,68.40
2023-04-26T16:55:24.873Z,68.00
2023-04-26T16:57:56.697Z,68.20
2023-04-26T17:00:28.415Z,68.60
2023-04-26T17:03:00.293Z,68.80
2023-04-26T17:05:36.965Z,69.00
2023-04-26T17:08:09.296Z,69.50
2023-04-26T17:10:41.082Z,70.00
2023-04-26T17:13:13.339Z,71.40
2023-04-26T17:15:45.193Z,71.90
2023-04-26T17:18:16.913Z,71.30
2023-04-26T17:20:52.826Z,72.10
2023-04-26T17:23:24.539Z,72.70
2023-04-26T17:25:56.458Z,72.00
2023-04-26T17:28:28.421Z,72.00
2023-04-26T17:31:00.593Z,72.10
2023-04-26T17:33:32.567Z,72.50
2023-04-26T17:36:04.677Z,73.60
2023-04-26T17:38:36.633Z,74.40
2023-04-26T17:41:08.432Z,75.10
2023-04-26T17:43:40.510Z,77.20
2023-04-26T17:46:12.505Z,76.40
2023-04-26T17:48:44.561Z,76.80
2023-04-26T17:51:16.393Z,77.40
2023-04-26T17:53:48.156Z,77.20
2023-04-26T17:56:19.959Z,76.40
2023-04-26T17:58:51.636Z,77.00
2023-04-26T18:01:23.392Z,77.40
2023-04-26T18:03:55.216Z,77.20
2023-04-26T18:06:28.156Z,77.80
2023-04-26T18:08:59.902Z,78.10
2023-04-26T18:11:32.034Z,78.10
2023-04-26T18:14:03.810Z,79.30
2023-04-26T18:16:35.574Z,80.30
2023-04-26T18:19:07.857Z,80.10
2023-04-26T18:21:40.872Z,80.30
2023-04-26T18:24:12.557Z,80.50
2023-04-26T18:26:44.295Z,80.50
2023-04-26T18:29:16.012Z,79.60
2023-04-26T18:31:49.433Z,79.10
2023-04-26T18:34:21.533Z,80.40
2023-04-26T18:36:53.261Z,82.30
2023-04-26T18:39:25.035Z,83.90
2023-04-26T18:41:56.720Z,85.80
2023-04-26T18:44:28.527Z,86.90
2023-04-26T18:47:00.383Z,88.50
2023-04-26T18:49:32.180Z,90.00
2023-04-26T18:52:04.147Z,90.60
2023-04-26T18:54:38.279Z,90.90
2023-04-26T18:57:10.676Z,90.70
2023-04-26T18:59:42.376Z,91.00
2023-04-26T19:02:14.256Z,91.50
2023-04-26T19:04:49.732Z,91.90
2023-04-26T19:07:22.233Z,92.40
2023-04-26T19:09:58.955Z,92.90
2023-04-26T19:12:32.059Z,93.00
2023-04-26T19:15:04.034Z,93.20
2023-04-26T19:17:35.787Z,93.50
2023-04-26T19:20:12.474Z,93.70
2023-04-26T19:22:46.952Z,93.80
2023-04-26T19:25:23.075Z,93.80
2023-04-26T19:27:54.861Z,94.10
2023-04-26T19:30:26.725Z,94.60
2023-04-26T19:32:58.479Z,94.60
2023-04-26T19:35:30.208Z,95.10
2023-04-26T19:38:01.991Z,95.20
2023-04-26T19:40:33.675Z,95.90
2023-04-26T19:43:05.607Z,96.20
2023-04-26T19:45:39.257Z,96.40
2023-04-26T19:48:11.056Z,96.80
2023-04-26T19:50:44.851Z,97.20
2023-04-26T19:53:16.643Z,97.50
2023-04-26T19:55:48.762Z,97.60
2023-04-26T19:58:20.760Z,97.40
2023-04-26T20:00:52.545Z,97.20
2023-04-26T20:03:24.708Z,97.30
2023-04-26T20:05:56.564Z,97.70
2023-04-26T20:08:29.251Z,98.10
2023-04-26T20:11:04.475Z,98.60
2023-04-26T20:13:36.285Z,99.00
2023-04-26T20:16:08.143Z,99.30
2023-04-26T20:18:39.836Z,99.40
2023-04-26T20:21:11.681Z,99.50
2023-04-26T20:23:43.360Z,99.60
2023-04-26T20:26:15.116Z,99.80
2023-04-26T20:28:47.465Z,99.80
2023-04-26T20:31:19.448Z,99.90
2023-04-26T20:33:51.325Z,99.90
2023-04-26T20:36:23.141Z,99.90
2023-04-26T20:38:54.831Z,99.90
2023-04-26T20:41:26.754Z,99.90
2023-04-26T20:43:58.445Z,99.90
2023-04-26T20:46:30.202Z,99.90
2023-04-26T20:49:02.555Z,99.90
2023-04-26T20:51:34.421Z,99.90
2023-04-26T20:54:06.183Z,99.90
2023-04-26T20:56:37.864Z,99.90
2023-04-26T20:59:09.813Z,99.90
2023-04-26T21:01:41.823Z,99.90
2023-04-26T21:04:13.706Z,99.90
2023-04-26T21:06:45.765Z,99.90
2023-04-26T21:09:17.518Z,99.90
2023-04-26T21:11:49.225Z,99.90
2023-04-26T21:14:20.947Z,99.90
2023-04-26T21:16:52.655Z,99.90
2023-04-26T21:19:24.361Z,99.90
2023-04-26T21:21:56.663Z,99.90
2023-04-26T21:24:28.384Z,99.90
2023-04-26T21:27:00.251Z,99.90
2023-04-26T21:29:32.061Z,99.90
2023-04-26T21:32:03.885Z,99.90
2023-04-26T21:34:36.492Z,99.90
2023-04-26T21:37:08.219Z,99.90
2023-04-26T21:39:39.888Z,99.90
2023-04-26T21:42:11.657Z,99.90
2023-04-26T21:44:43.342Z,99.90
2023-04-26T21:47:15.041Z,99.90
2023-04-26T21:49:46.725Z,99.90
2023-04-26T21:52:18.905Z,99.90
2023-04-26T21:54:52.797Z,99.90
2023-04-26T21:57:24.770Z,99.90
2023-04-26T21:59:56.677Z,99.90
2023-04-26T22:02:28.698Z,99.90
2023-04-26T22:05:00.564Z,99.90
2023-04-26T22:07:32.604Z,99.90
2023-04-26T22:10:04.757Z,99.90
2023-04-26T22:12:36.548Z,99.90
2023-04-26T22:15:08.586Z,99.90
2023-04-26T22:17:40.745Z,99.90
2023-04-26T22:20:12.961Z,99.90
2023-04-26T22:22:44.675Z,99.90
2023-04-26T22:25:16.461Z,99.90
2023-04-26T22:27:48.658Z,99.90
2023-04-26T22:30:24.601Z,99.90
2023-04-26T22:32:59.606Z,99.90
2023-04-26T22:35:31.417Z,99.90
2023-04-26T22:38:03.116Z,99.90
2023-04-26T22:40:35.336Z,99.90
2023-04-26T22:43:07.080Z,99.90
2023-04-26T22:45:38.822Z,99.90
2023-04-26T22:48:10.903Z,99.90
2023-04-26T22:50:42.637Z,99.90
2023-04-26T22:53:14.408Z,99.90
2023-04-26T22:55:46.186Z,99.90
2023-04-26T22:58:18.011Z,99.90
2023-04-26T23:00:49.765Z,99.90
2023-04-26T23:03:21.649Z,99.90
2023-04-26T23:05:53.545Z,99.90
2023-04-26T23:08:25.366Z,99.90
2023-04-26T23:10:57.126Z,99.90
2023-04-26T23:13:29.529Z,99.90
2023-04-26T23:16:01.291Z,99.90
2023-04-26T23:18:32.990Z,99.90
2023-04-26T23:21:05.377Z,99.90
2023-04-26T23:23:37.195Z,99.90
2023-04-26T23:26:08.930Z,99.90
2023-04-26T23:28:40.738Z,99.90
2023-04-26T23:31:12.458Z,99.90
2023-04-26T23:33:44.203Z,99.90
2023-04-26T23:36:15.948Z,99.90
2023-04-26T23:38:47.617Z,99.90
2023-04-26T23:41:19.428Z,99.90
2023-04-26T23:43:51.118Z,99.90
2023-04-26T23:46:22.877Z,99.90
2023-04-26T23:48:54.635Z,99.90
2023-04-26T23:51:27.540Z,99.90
2023-04-26T23:53:59.288Z,99.90
2023-04-26T23:56:31.444Z,99.90
2023-04-26T23:59:03.126Z,99.90
